sensor_id;sensor_type;location;lat;lon;timestamp;pressure;altitude;pressure_sealevel;temperature;humidity
71735;BME280;59577;52.122;5.406;2024-02-21T00:01:16;102240.69;;;8.74;100.00
71735;BME280;59577;52.122;5.406;2024-02-21T00:03:44;102233.69;;;8.73;100.00
71735;BME280;59577;52.122;5.406;2024-02-21T00:06:10;102220.69;;;8.75;100.00
71735;BME280;59577;52.122;5.406;2024-02-21T00:08:37;102222.09;;;8.73;100.00
71735;BME280;59577;52.122;5.406;2024-02-21T00:11:04;102212.41;;;8.72;100.00
71735;BME280;59577;52.122;5.406;2024-02-21T00:13:30;102200.81;;;8.71;100.00
71735;BME280;59577;52.122;5.406;2024-02-21T00:15:57;102201.91;;;8.70;100.00
71735;BME280;59577;52.122;5.406;2024-02-21T00:18:23;102206.81;;;8.68;100.00
71735;BME280;59577;52.122;5.406;2024-02-21T00:20:55;102190.44;;;8.64;100.00
71735;BME280;59577;52.122;5.406;2024-02-21T00:23:22;102193.91;;;8.65;100.00
71735;BME280;59577;52.122;5.406;2024-02-21T00:25:49;102202.84;;;8.65;100.00
71735;BME280;59577;52.122;5.406;2024-02-21T00:28:16;102203.13;;;8.64;100.00
71735;BME280;59577;52.122;5.406;2024-02-21T00:30:43;102204.72;;;8.65;100.00
71735;BME280;59577;52.122;5.406;2024-02-21T00:33:09;102196.94;;;8.63;100.00
71735;BME280;59577;52.122;5.406;2024-02-21T00:35:36;102202.03;;;8.65;100.00
71735;BME280;59577;52.122;5.406;2024-02-21T00:38:03;102197.44;;;8.65;100.00
71735;BME280;59577;52.122;5.406;2024-02-21T00:40:30;102184.25;;;8.64;100.00
71735;BME280;59577;52.122;5.406;2024-02-21T00:42:56;102186.63;;;8.65;100.00
71735;BME280;59577;52.122;5.406;2024-02-21T00:45:23;102190.44;;;8.64;100.00
71735;BME280;59577;52.122;5.406;2024-02-21T00:47:49;102193.91;;;8.65;100.00
71735;BME280;59577;52.122;5.406;2024-02-21T00:50:16;102191.22;;;8.65;100.00
71735;BME280;59577;52.122;5.406;2024-02-21T00:52:43;102192.03;;;8.65;100.00
71735;BME280;59577;52.122;5.406;2024-02-21T00:55:11;102192.03;;;8.65;100.00
71735;BME280;59577;52.122;5.406;2024-02-21T00:57:37;102187.44;;;8.66;100.00
71735;BME280;59577;52.122;5.406;2024-02-21T01:00:04;102190.91;;;8.66;100.00
71735;BME280;59577;52.122;5.406;2024-02-21T01:02:31;102209.81;;;8.66;100.00
71735;BME280;59577;52.122;5.406;2024-02-21T01:04:58;102217.13;;;8.66;100.00
71735;BME280;59577;52.122;5.406;2024-02-21T01:07:25;102217.91;;;8.66;100.00
71735;BME280;59577;52.122;5.406;2024-02-21T01:09:51;102209.03;;;8.66;100.00
71735;BME280;59577;52.122;5.406;2024-02-21T01:12:19;102220.31;;;8.68;100.00
71735;BME280;59577;52.122;5.406;2024-02-21T01:14:45;102213.34;;;8.67;100.00
71735;BME280;59577;52.122;5.406;2024-02-21T01:17:16;102199.84;;;8.67;100.00
71735;BME280;59577;52.122;5.406;2024-02-21T01:19:42;102199.03;;;8.66;100.00
71735;BME280;59577;52.122;5.406;2024-02-21T01:22:09;102192.03;;;8.65;100.00
71735;BME280;59577;52.122;5.406;2024-02-21T01:24:36;102199.31;;;8.65;100.00
71735;BME280;59577;52.122;5.406;2024-02-21T01:27:02;102194.75;;;8.65;100.00
71735;BME280;59577;52.122;5.406;2024-02-21T01:29:29;102195.03;;;8.64;100.00
71735;BME280;59577;52.122;5.406;2024-02-21T01:31:55;102191.22;;;8.65;100.00
71735;BME280;59577;52.122;5.406;2024-02-21T01:34:22;102183.13;;;8.65;100.00
71735;BME280;59577;52.122;5.406;2024-02-21T01:36:49;102173.94;;;8.66;100.00
71735;BME280;59577;52.122;5.406;2024-02-21T01:39:15;102172.53;;;8.69;100.00
71735;BME280;59577;52.122;5.406;2024-02-21T01:41:42;102167.16;;;8.69;100.00
71735;BME280;59577;52.122;5.406;2024-02-21T01:44:08;102177.13;;;8.68;100.00
71735;BME280;59577;52.122;5.406;2024-02-21T01:46:35;102160.13;;;8.68;100.00
71735;BME280;59577;52.122;5.406;2024-02-21T01:49:01;102153.13;;;8.66;100.00
71735;BME280;59577;52.122;5.406;2024-02-21T01:51:28;102152.03;;;8.68;100.00
71735;BME280;59577;52.122;5.406;2024-02-21T01:53:56;102150.13;;;8.68;100.00
71735;BME280;59577;52.122;5.406;2024-02-21T01:56:23;102143.16;;;8.67;100.00
71735;BME280;59577;52.122;5.406;2024-02-21T01:58:51;102145.84;;;8.67;100.00
71735;BME280;59577;52.122;5.406;2024-02-21T02:01:18;102147.72;;;8.66;100.00
71735;BME280;59577;52.122;5.406;2024-02-21T02:03:48;102148.84;;;8.65;100.00
71735;BME280;59577;52.122;5.406;2024-02-21T02:06:15;102150.72;;;8.65;100.00
71735;BME280;59577;52.122;5.406;2024-02-21T02:08:42;102141.84;;;8.64;100.00
71735;BME280;59577;52.122;5.406;2024-02-21T02:11:09;102132.97;;;8.64;100.00
71735;BME280;59577;52.122;5.406;2024-02-21T02:13:36;102141.06;;;8.64;100.00
71735;BME280;59577;52.122;5.406;2024-02-21T02:16:03;102128.66;;;8.63;100.00
71735;BME280;59577;52.122;5.406;2024-02-21T02:18:30;102128.34;;;8.64;100.00
71735;BME280;59577;52.122;5.406;2024-02-21T02:20:57;102118.34;;;8.65;100.00
71735;BME280;59577;52.122;5.406;2024-02-21T02:25:50;102115.34;;;8.66;100.00
71735;BME280;59577;52.122;5.406;2024-02-21T02:28:21;102104.56;;;8.66;100.00
71735;BME280;59577;52.122;5.406;2024-02-21T02:30:48;102102.16;;;8.65;100.00
71735;BME280;59577;52.122;5.406;2024-02-21T02:33:15;102114.56;;;8.66;100.00
71735;BME280;59577;52.122;5.406;2024-02-21T02:35:44;102104.06;;;8.64;100.00
71735;BME280;59577;52.122;5.406;2024-02-21T02:38:11;102098.66;;;8.64;100.00
71735;BME280;59577;52.122;5.406;2024-02-21T02:40:38;102105.66;;;8.65;100.00
71735;BME280;59577;52.122;5.406;2024-02-21T02:43:05;102101.66;;;8.63;100.00
71735;BME280;59577;52.122;5.406;2024-02-21T02:45:32;102099.78;;;8.63;100.00
71735;BME280;59577;52.122;5.406;2024-02-21T02:47:59;102101.38;;;8.64;100.00
71735;BME280;59577;52.122;5.406;2024-02-21T02:50:27;102100.09;;;8.62;100.00
71735;BME280;59577;52.122;5.406;2024-02-21T02:52:54;102100.09;;;8.62;100.00
71735;BME280;59577;52.122;5.406;2024-02-21T02:55:21;102102.78;;;8.62;100.00
71735;BME280;59577;52.122;5.406;2024-02-21T02:57:48;102095.00;;;8.60;100.00
71735;BME280;59577;52.122;5.406;2024-02-21T03:00:15;102086.91;;;8.60;100.00
71735;BME280;59577;52.122;5.406;2024-02-21T03:02:43;102088.78;;;8.60;100.00
71735;BME280;59577;52.122;5.406;2024-02-21T03:05:18;102077.97;;;8.60;100.00
71735;BME280;59577;52.122;5.406;2024-02-21T03:07:46;102072.59;;;8.60;100.00
71735;BME280;59577;52.122;5.406;2024-02-21T03:10:13;102072.59;;;8.60;100.00
71735;BME280;59577;52.122;5.406;2024-02-21T03:12:40;102071.00;;;8.59;100.00
71735;BME280;59577;52.122;5.406;2024-02-21T03:15:07;102067.19;;;8.60;100.00
71735;BME280;59577;52.122;5.406;2024-02-21T03:17:34;102066.41;;;8.59;100.00
71735;BME280;59577;52.122;5.406;2024-02-21T03:20:05;102067.53;;;8.58;100.00
71735;BME280;59577;52.122;5.406;2024-02-21T03:22:32;102058.59;;;8.58;100.00
71735;BME280;59577;52.122;5.406;2024-02-21T03:25:01;102059.72;;;8.57;100.00
71735;BME280;59577;52.122;5.406;2024-02-21T03:27:28;102047.34;;;8.56;100.00
71735;BME280;59577;52.122;5.406;2024-02-21T03:29:54;102050.03;;;8.56;100.00
71735;BME280;59577;52.122;5.406;2024-02-21T03:32:21;102049.25;;;8.55;100.00
71735;BME280;59577;52.122;5.406;2024-02-21T03:34:47;102040.34;;;8.55;100.00
71735;BME280;59577;52.122;5.406;2024-02-21T03:37:14;102031.44;;;8.54;100.00
71735;BME280;59577;52.122;5.406;2024-02-21T03:39:41;102030.66;;;8.54;100.00
71735;BME280;59577;52.122;5.406;2024-02-21T03:42:07;102025.25;;;8.54;100.00
71735;BME280;59577;52.122;5.406;2024-02-21T03:44:34;102020.47;;;8.51;100.00
71735;BME280;59577;52.122;5.406;2024-02-21T03:47:00;102018.56;;;8.51;100.00
71735;BME280;59577;52.122;5.406;2024-02-21T03:49:27;102016.97;;;8.50;100.00
71735;BME280;59577;52.122;5.406;2024-02-21T03:51:54;102018.91;;;8.50;100.00
71735;BME280;59577;52.122;5.406;2024-02-21T03:54:20;102018.91;;;8.50;100.00
71735;BME280;59577;52.122;5.406;2024-02-21T03:56:47;102022.38;;;8.50;100.00
71735;BME280;59577;52.122;5.406;2024-02-21T03:59:15;102014.28;;;8.50;100.00
71735;BME280;59577;52.122;5.406;2024-02-21T04:01:42;102018.06;;;8.49;100.00
71735;BME280;59577;52.122;5.406;2024-02-21T04:04:09;102014.59;;;8.49;100.00
71735;BME280;59577;52.122;5.406;2024-02-21T04:06:36;102021.91;;;8.48;100.00
71735;BME280;59577;52.122;5.406;2024-02-21T04:09:02;102015.19;;;8.45;100.00
71735;BME280;59577;52.122;5.406;2024-02-21T04:11:29;102015.19;;;8.45;100.00
71735;BME280;59577;52.122;5.406;2024-02-21T04:13:56;102021.72;;;8.44;100.00
71735;BME280;59577;52.122;5.406;2024-02-21T04:16:23;102017.09;;;8.45;100.00
71735;BME280;59577;52.122;5.406;2024-02-21T04:18:50;101998.53;;;8.43;100.00
71735;BME280;59577;52.122;5.406;2024-02-21T04:21:17;101990.44;;;8.43;100.00
71735;BME280;59577;52.122;5.406;2024-02-21T04:23:43;101999.63;;;8.42;100.00
71735;BME280;59577;52.122;5.406;2024-02-21T04:26:10;101998.00;;;8.41;100.00
71735;BME280;59577;52.122;5.406;2024-02-21T04:28:36;101995.31;;;8.41;100.00
71735;BME280;59577;52.122;5.406;2024-02-21T04:31:03;101997.19;;;8.41;100.00
71735;BME280;59577;52.122;5.406;2024-02-21T04:33:30;101992.91;;;8.40;100.00
71735;BME280;59577;52.122;5.406;2024-02-21T04:35:56;101992.13;;;8.39;100.00
71735;BME280;59577;52.122;5.406;2024-02-21T04:38:25;101989.44;;;8.39;100.00
71735;BME280;59577;52.122;5.406;2024-02-21T04:40:51;101987.81;;;8.38;100.00
71735;BME280;59577;52.122;5.406;2024-02-21T04:43:18;101983.22;;;8.39;100.00
71735;BME280;59577;52.122;5.406;2024-02-21T04:45:45;101985.13;;;8.38;100.00
71735;BME280;59577;52.122;5.406;2024-02-21T04:48:11;101975.59;;;8.41;100.00
71735;BME280;59577;52.122;5.406;2024-02-21T04:50:38;101962.75;;;8.38;100.00
71735;BME280;59577;52.122;5.406;2024-02-21T04:53:04;101960.84;;;8.38;100.00
71735;BME280;59577;52.122;5.406;2024-02-21T04:55:31;101962.75;;;8.38;100.00
71735;BME280;59577;52.122;5.406;2024-02-21T04:57:58;101958.94;;;8.39;100.00
71735;BME280;59577;52.122;5.406;2024-02-21T05:00:24;101960.84;;;8.38;100.00
71735;BME280;59577;52.122;5.406;2024-02-21T05:02:51;101952.75;;;8.38;100.00
71735;BME280;59577;52.122;5.406;2024-02-21T05:05:18;101966.25;;;8.38;100.00
71735;BME280;59577;52.122;5.406;2024-02-21T05:07:45;101957.38;;;8.38;100.00
71735;BME280;59577;52.122;5.406;2024-02-21T05:10:11;101959.25;;;8.37;100.00
71735;BME280;59577;52.122;5.406;2024-02-21T05:12:38;101951.97;;;8.38;100.00
71735;BME280;59577;52.122;5.406;2024-02-21T05:15:05;101959.25;;;8.37;100.00
71735;BME280;59577;52.122;5.406;2024-02-21T05:17:32;101955.47;;;8.38;100.00
71735;BME280;59577;52.122;5.406;2024-02-21T05:19:59;101944.66;;;8.38;100.00
71735;BME280;59577;52.122;5.406;2024-02-21T05:22:26;101944.97;;;8.37;100.00
71735;BME280;59577;52.122;5.406;2024-02-21T05:24:52;101929.56;;;8.37;100.00
71735;BME280;59577;52.122;5.406;2024-02-21T05:27:19;101937.66;;;8.37;100.00
71735;BME280;59577;52.122;5.406;2024-02-21T05:29:45;101934.19;;;8.37;100.00
71735;BME280;59577;52.122;5.406;2024-02-21T05:32:12;101928.78;;;8.37;100.00
71735;BME280;59577;52.122;5.406;2024-02-21T05:34:39;101923.69;;;8.35;100.00
71735;BME280;59577;52.122;5.406;2024-02-21T05:37:06;101913.72;;;8.36;100.00
71735;BME280;59577;52.122;5.406;2024-02-21T05:39:32;101910.22;;;8.35;100.00
71735;BME280;59577;52.122;5.406;2024-02-21T05:41:59;101910.50;;;8.34;100.00
71735;BME280;59577;52.122;5.406;2024-02-21T05:44:25;101915.13;;;8.33;100.00
71735;BME280;59577;52.122;5.406;2024-02-21T05:46:53;101903.84;;;8.31;100.00
71735;BME280;59577;52.122;5.406;2024-02-21T05:49:20;101890.06;;;8.33;100.00
71735;BME280;59577;52.122;5.406;2024-02-21T05:51:47;101889.56;;;8.31;100.00
71735;BME280;59577;52.122;5.406;2024-02-21T05:54:13;101884.19;;;8.31;100.00
71735;BME280;59577;52.122;5.406;2024-02-21T05:56:44;101880.66;;;8.30;100.00
71735;BME280;59577;52.122;5.406;2024-02-21T05:59:10;101882.56;;;8.29;100.00
71735;BME280;59577;52.122;5.406;2024-02-21T06:01:37;101877.19;;;8.29;100.00
71735;BME280;59577;52.122;5.406;2024-02-21T06:04:03;101880.66;;;8.30;100.00
71735;BME280;59577;52.122;5.406;2024-02-21T06:06:31;101877.97;;;8.30;100.00
71735;BME280;59577;52.122;5.406;2024-02-21T06:08:57;101873.69;;;8.29;100.00
71735;BME280;59577;52.122;5.406;2024-02-21T06:11:25;101869.09;;;8.29;100.00
71735;BME280;59577;52.122;5.406;2024-02-21T06:13:51;101873.38;;;8.31;100.00
71735;BME280;59577;52.122;5.406;2024-02-21T06:16:18;101862.59;;;8.31;100.00
71735;BME280;59577;52.122;5.406;2024-02-21T06:18:45;101859.91;;;8.31;100.00
71735;BME280;59577;52.122;5.406;2024-02-21T06:21:11;101857.50;;;8.29;100.00
71735;BME280;59577;52.122;5.406;2024-02-21T06:23:38;101870.69;;;8.31;100.00
71735;BME280;59577;52.122;5.406;2024-02-21T06:26:05;101866.88;;;8.32;100.00
71735;BME280;59577;52.122;5.406;2024-02-21T06:28:31;101867.19;;;8.30;100.00
71735;BME280;59577;52.122;5.406;2024-02-21T06:30:58;101872.09;;;8.28;100.00
71735;BME280;59577;52.122;5.406;2024-02-21T06:33:25;101881.28;;;8.27;100.00
71735;BME280;59577;52.122;5.406;2024-02-21T06:35:51;101885.72;;;8.23;100.00
71735;BME280;59577;52.122;5.406;2024-02-21T06:38:19;101878.22;;;8.20;100.00
71735;BME280;59577;52.122;5.406;2024-02-21T06:40:46;101880.94;;;8.20;100.00
71735;BME280;59577;52.122;5.406;2024-02-21T06:43:17;101877.75;;;8.18;100.00
71735;BME280;59577;52.122;5.406;2024-02-21T06:45:45;101883.16;;;8.18;100.00
71735;BME280;59577;52.122;5.406;2024-02-21T06:48:13;101879.66;;;8.17;100.00
71735;BME280;59577;52.122;5.406;2024-02-21T06:50:40;101872.66;;;8.16;100.00
71735;BME280;59577;52.122;5.406;2024-02-21T06:53:07;101866.00;;;8.14;100.00
71735;BME280;59577;52.122;5.406;2024-02-21T06:55:33;101859.50;;;8.15;100.00
71735;BME280;59577;52.122;5.406;2024-02-21T06:58:00;101865.19;;;8.13;100.00
71735;BME280;59577;52.122;5.406;2024-02-21T07:00:31;101864.41;;;8.13;100.00
71735;BME280;59577;52.122;5.406;2024-02-21T07:02:57;101858.84;;;8.09;100.00
71735;BME280;59577;52.122;5.406;2024-02-21T07:05:24;101852.34;;;8.10;100.00
71735;BME280;59577;52.122;5.406;2024-02-21T07:07:51;101853.13;;;8.10;100.00
71735;BME280;59577;52.122;5.406;2024-02-21T07:10:17;101849.66;;;8.10;100.00
71735;BME280;59577;52.122;5.406;2024-02-21T07:12:44;101854.22;;;8.09;100.00
71735;BME280;59577;52.122;5.406;2024-02-21T07:15:10;101855.03;;;8.10;100.00
71735;BME280;59577;52.122;5.406;2024-02-21T07:17:37;101844.25;;;8.10;100.00
71735;BME280;59577;52.122;5.406;2024-02-21T07:20:04;101843.44;;;8.09;100.00
71735;BME280;59577;52.122;5.406;2024-02-21T07:22:31;101839.66;;;8.10;100.00
71735;BME280;59577;52.122;5.406;2024-02-21T07:24:57;101839.94;;;8.09;100.00
71735;BME280;59577;52.122;5.406;2024-02-21T07:27:24;101845.03;;;8.10;100.00
71735;BME280;59577;52.122;5.406;2024-02-21T07:29:54;101835.84;;;8.12;100.00
71735;BME280;59577;52.122;5.406;2024-02-21T07:32:20;101830.47;;;8.12;100.00
71735;BME280;59577;52.122;5.406;2024-02-21T07:34:47;101823.47;;;8.10;100.00
71735;BME280;59577;52.122;5.406;2024-02-21T07:37:13;101819.69;;;8.12;100.00
71735;BME280;59577;52.122;5.406;2024-02-21T07:39:40;101816.16;;;8.11;100.00
71735;BME280;59577;52.122;5.406;2024-02-21T07:42:07;101811.59;;;8.12;100.00
71735;BME280;59577;52.122;5.406;2024-02-21T07:44:33;101803.16;;;8.13;100.00
71735;BME280;59577;52.122;5.406;2024-02-21T07:47:01;101796.84;;;8.18;100.00
71735;BME280;59577;52.122;5.406;2024-02-21T07:49:27;101790.06;;;8.20;100.00
71735;BME280;59577;52.122;5.406;2024-02-21T07:51:54;101785.44;;;8.21;100.00
71735;BME280;59577;52.122;5.406;2024-02-21T07:54:21;101788.63;;;8.23;100.00
71735;BME280;59577;52.122;5.406;2024-02-21T07:56:47;101777.53;;;8.24;100.00
71735;BME280;59577;52.122;5.406;2024-02-21T07:59:14;101771.03;;;8.25;100.00
71735;BME280;59577;52.122;5.406;2024-02-21T08:01:40;101773.72;;;8.25;100.00
71735;BME280;59577;52.122;5.406;2024-02-21T08:04:07;101779.59;;;8.27;100.00
71735;BME280;59577;52.122;5.406;2024-02-21T08:06:34;101778.16;;;8.30;100.00
71735;BME280;59577;52.122;5.406;2024-02-21T08:09:00;101786.72;;;8.32;100.00
71735;BME280;59577;52.122;5.406;2024-02-21T08:11:27;101785.63;;;8.33;100.00
71735;BME280;59577;52.122;5.406;2024-02-21T08:13:54;101775.31;;;8.35;100.00
71735;BME280;59577;52.122;5.406;2024-02-21T08:16:20;101768.69;;;8.41;100.00
71735;BME280;59577;52.122;5.406;2024-02-21T08:18:47;101773.97;;;8.46;100.00
71735;BME280;59577;52.122;5.406;2024-02-21T08:21:14;101759.84;;;8.50;100.00
71735;BME280;59577;52.122;5.406;2024-02-21T08:23:40;101765.41;;;8.53;100.00
71735;BME280;59577;52.122;5.406;2024-02-21T08:26:07;101760.50;;;8.55;100.00
71735;BME280;59577;52.122;5.406;2024-02-21T08:28:33;101757.50;;;8.57;100.00
71735;BME280;59577;52.122;5.406;2024-02-21T08:31:00;101758.44;;;8.61;100.00
71735;BME280;59577;52.122;5.406;2024-02-21T08:33:27;101751.28;;;8.65;100.00
71735;BME280;59577;52.122;5.406;2024-02-21T08:35:54;101736.53;;;8.62;100.00
71735;BME280;59577;52.122;5.406;2024-02-21T08:38:20;101748.13;;;8.63;100.00
71735;BME280;59577;52.122;5.406;2024-02-21T08:40:47;101742.41;;;8.64;100.00
71735;BME280;59577;52.122;5.406;2024-02-21T08:43:13;101736.69;;;8.66;100.00
71735;BME280;59577;52.122;5.406;2024-02-21T08:45:40;101734.47;;;8.68;100.00
71735;BME280;59577;52.122;5.406;2024-02-21T08:48:07;101725.91;;;8.75;100.00
71735;BME280;59577;52.122;5.406;2024-02-21T08:50:34;101717.03;;;8.74;100.00
71735;BME280;59577;52.122;5.406;2024-02-21T08:53:03;101705.09;;;8.75;100.00
71735;BME280;59577;52.122;5.406;2024-02-21T08:55:30;101713.69;;;8.77;100.00
71735;BME280;59577;52.122;5.406;2024-02-21T08:57:56;101709.56;;;8.80;100.00
71735;BME280;59577;52.122;5.406;2024-02-21T09:00:23;101709.56;;;8.80;100.00
71735;BME280;59577;52.122;5.406;2024-02-21T09:02:54;101707.31;;;8.82;100.00
71735;BME280;59577;52.122;5.406;2024-02-21T09:05:22;101712.56;;;8.87;100.00
71735;BME280;59577;52.122;5.406;2024-02-21T09:07:50;101707.78;;;8.93;100.00
71735;BME280;59577;52.122;5.406;2024-02-21T09:10:17;101699.06;;;8.96;100.00
71735;BME280;59577;52.122;5.406;2024-02-21T09:12:44;101702.06;;;8.94;100.00
71735;BME280;59577;52.122;5.406;2024-02-21T09:15:10;101701.28;;;8.94;100.00
71735;BME280;59577;52.122;5.406;2024-02-21T09:17:37;101691.78;;;8.96;100.00
71735;BME280;59577;52.122;5.406;2024-02-21T09:20:04;101695.72;;;8.99;100.00
71735;BME280;59577;52.122;5.406;2024-02-21T09:22:31;101691.13;;;8.99;100.00
71735;BME280;59577;52.122;5.406;2024-02-21T09:25:01;101687.31;;;9.00;100.00
71735;BME280;59577;52.122;5.406;2024-02-21T09:27:29;101678.75;;;8.98;100.00
71735;BME280;59577;52.122;5.406;2024-02-21T09:29:56;101689.22;;;9.00;100.00
71735;BME280;59577;52.122;5.406;2024-02-21T09:32:23;101668.41;;;9.00;100.00
71735;BME280;59577;52.122;5.406;2024-02-21T09:34:49;101666.50;;;9.01;100.00
71735;BME280;59577;52.122;5.406;2024-02-21T09:37:16;101658.22;;;9.06;100.00
71735;BME280;59577;52.122;5.406;2024-02-21T09:39:43;101646.00;;;9.09;100.00
71735;BME280;59577;52.122;5.406;2024-02-21T09:42:11;101637.72;;;9.14;100.00
71735;BME280;59577;52.122;5.406;2024-02-21T09:44:38;101632.34;;;9.14;100.00
71735;BME280;59577;52.122;5.406;2024-02-21T09:50:19;101630.25;;;9.19;100.00
71735;BME280;59577;52.122;5.406;2024-02-21T09:52:48;101624.69;;;9.16;100.00
71735;BME280;59577;52.122;5.406;2024-02-21T09:55:17;101618.50;;;9.15;100.00
71735;BME280;59577;52.122;5.406;2024-02-21T09:57:44;101602.78;;;9.17;100.00
71735;BME280;59577;52.122;5.406;2024-02-21T10:00:12;101608.94;;;9.18;100.00
71735;BME280;59577;52.122;5.406;2024-02-21T10:02:39;101591.78;;;9.22;100.00
71735;BME280;59577;52.122;5.406;2024-02-21T10:05:06;101588.09;;;9.27;100.00
71735;BME280;59577;52.122;5.406;2024-02-21T10:07:34;101581.28;;;9.30;100.00
71735;BME280;59577;52.122;5.406;2024-02-21T10:10:04;101579.81;;;9.32;100.00
71735;BME280;59577;52.122;5.406;2024-02-21T10:12:31;101575.03;;;9.38;100.00
71735;BME280;59577;52.122;5.406;2024-02-21T10:15:05;101569.63;;;9.38;100.00
71735;BME280;59577;52.122;5.406;2024-02-21T10:17:32;101561.66;;;9.41;100.00
71735;BME280;59577;52.122;5.406;2024-02-21T10:20:09;101549.53;;;9.48;100.00
71735;BME280;59577;52.122;5.406;2024-02-21T10:22:38;101557.47;;;9.53;100.00
71735;BME280;59577;52.122;5.406;2024-02-21T10:25:07;101551.88;;;9.58;100.00
71735;BME280;59577;52.122;5.406;2024-02-21T10:27:34;101544.03;;;9.65;100.00
71735;BME280;59577;52.122;5.406;2024-02-21T10:30:00;101536.06;;;9.69;100.00
71735;BME280;59577;52.122;5.406;2024-02-21T10:32:27;101517.56;;;9.79;100.00
71735;BME280;59577;52.122;5.406;2024-02-21T10:35:04;101511.28;;;9.88;100.00
71735;BME280;59577;52.122;5.406;2024-02-21T10:37:31;101509.06;;;9.90;100.00
71735;BME280;59577;52.122;5.406;2024-02-21T10:39:58;101533.19;;;9.95;100.00
71735;BME280;59577;52.122;5.406;2024-02-21T10:42:29;101508.06;;;9.94;100.00
71735;BME280;59577;52.122;5.406;2024-02-21T10:45:01;101497.56;;;9.93;100.00
71735;BME280;59577;52.122;5.406;2024-02-21T10:47:31;101493.16;;;9.88;100.00
71735;BME280;59577;52.122;5.406;2024-02-21T10:50:02;101479.22;;;9.77;100.00
71735;BME280;59577;52.122;5.406;2024-02-21T10:52:51;101482.75;;;9.78;100.00
71735;BME280;59577;52.122;5.406;2024-02-21T10:55:56;101466.31;;;9.83;100.00
71735;BME280;59577;52.122;5.406;2024-02-21T10:58:25;101446.06;;;9.89;100.00
71735;BME280;59577;52.122;5.406;2024-02-21T11:00:52;101430.28;;;9.91;100.00
71735;BME280;59577;52.122;5.406;2024-02-21T11:03:19;101422.84;;;9.88;100.00
71735;BME280;59577;52.122;5.406;2024-02-21T11:05:46;101402.91;;;9.93;100.00
71735;BME280;59577;52.122;5.406;2024-02-21T11:08:13;101405.91;;;10.00;100.00
71735;BME280;59577;52.122;5.406;2024-02-21T11:10:45;101398.56;;;10.01;100.00
71735;BME280;59577;52.122;5.406;2024-02-21T11:13:12;101444.88;;;9.99;100.00
71735;BME280;59577;52.122;5.406;2024-02-21T11:15:40;101476.00;;;9.84;100.00
71735;BME280;59577;52.122;5.406;2024-02-21T11:18:07;101472.31;;;9.68;100.00
71735;BME280;59577;52.122;5.406;2024-02-21T11:20:34;101466.97;;;9.59;100.00
71735;BME280;59577;52.122;5.406;2024-02-21T11:23:02;101470.34;;;9.56;100.00
71735;BME280;59577;52.122;5.406;2024-02-21T11:25:29;101468.47;;;9.48;100.00
71735;BME280;59577;52.122;5.406;2024-02-21T11:28:04;101454.38;;;9.42;100.00
71735;BME280;59577;52.122;5.406;2024-02-21T11:30:32;101455.34;;;9.37;100.00
71735;BME280;59577;52.122;5.406;2024-02-21T11:33:00;101455.53;;;9.32;100.00
71735;BME280;59577;52.122;5.406;2024-02-21T11:35:34;101442.72;;;9.29;100.00
71735;BME280;59577;52.122;5.406;2024-02-21T11:38:12;101434.25;;;9.31;100.00
71735;BME280;59577;52.122;5.406;2024-02-21T11:40:45;101419.50;;;9.28;100.00
71735;BME280;59577;52.122;5.406;2024-02-21T11:43:12;101409.66;;;9.23;100.00
71735;BME280;59577;52.122;5.406;2024-02-21T11:45:38;101408.75;;;9.19;100.00
71735;BME280;59577;52.122;5.406;2024-02-21T11:48:06;101402.91;;;9.17;100.00
71735;BME280;59577;52.122;5.406;2024-02-21T11:50:36;101388.13;;;9.15;100.00
71735;BME280;59577;52.122;5.406;2024-02-21T11:53:05;101385.41;;;9.15;100.00
71735;BME280;59577;52.122;5.406;2024-02-21T11:55:32;101387.81;;;9.16;100.00
71735;BME280;59577;52.122;5.406;2024-02-21T11:57:58;101373.19;;;9.17;100.00
71735;BME280;59577;52.122;5.406;2024-02-21T12:00:25;101343.41;;;9.26;100.00
71735;BME280;59577;52.122;5.406;2024-02-21T12:02:52;101322.56;;;9.48;100.00
71735;BME280;59577;52.122;5.406;2024-02-21T12:05:19;101322.19;;;9.70;100.00
71735;BME280;59577;52.122;5.406;2024-02-21T12:07:46;101309.84;;;9.82;100.00
71735;BME280;59577;52.122;5.406;2024-02-21T12:10:13;101294.41;;;9.94;100.00
71735;BME280;59577;52.122;5.406;2024-02-21T12:12:40;101282.84;;;10.06;100.00
71735;BME280;59577;52.122;5.406;2024-02-21T12:15:07;101276.19;;;10.16;100.00
71735;BME280;59577;52.122;5.406;2024-02-21T12:17:35;101273.16;;;10.18;100.00
71735;BME280;59577;52.122;5.406;2024-02-21T12:20:03;101264.72;;;10.31;100.00
71735;BME280;59577;52.122;5.406;2024-02-21T12:22:36;101277.66;;;10.38;100.00
71735;BME280;59577;52.122;5.406;2024-02-21T12:25:03;101277.59;;;10.47;100.00
71735;BME280;59577;52.122;5.406;2024-02-21T12:27:30;101268.09;;;10.41;100.00
71735;BME280;59577;52.122;5.406;2024-02-21T12:29:57;101257.94;;;10.38;100.00
71735;BME280;59577;52.122;5.406;2024-02-21T12:32:23;101239.34;;;10.36;100.00
71735;BME280;59577;52.122;5.406;2024-02-21T12:34:50;101227.94;;;10.43;100.00
71735;BME280;59577;52.122;5.406;2024-02-21T12:37:22;101221.88;;;10.46;100.00
71735;BME280;59577;52.122;5.406;2024-02-21T12:39:48;101213.44;;;10.35;100.00
71735;BME280;59577;52.122;5.406;2024-02-21T12:42:15;101212.72;;;10.26;100.00
71735;BME280;59577;52.122;5.406;2024-02-21T12:44:42;101208.78;;;10.23;100.00
71735;BME280;59577;52.122;5.406;2024-02-21T12:47:09;101193.00;;;10.25;100.00
71735;BME280;59577;52.122;5.406;2024-02-21T12:49:36;101187.81;;;10.32;100.00
71735;BME280;59577;52.122;5.406;2024-02-21T12:52:04;101182.63;;;10.40;100.00
71735;BME280;59577;52.122;5.406;2024-02-21T12:54:31;101171.81;;;10.40;100.00
71735;BME280;59577;52.122;5.406;2024-02-21T12:56:57;101153.31;;;10.42;100.00